sensor_id;sensor_type;location;lat;lon;timestamp;temperature;humidity
48206;DHT22;33995;48.202;16.260;2024-03-08T00:00:18;4.40;99.90
48206;DHT22;33995;48.202;16.260;2024-03-08T00:02:46;4.40;99.90
48206;DHT22;33995;48.202;16.260;2024-03-08T00:05:18;4.30;99.90
48206;DHT22;33995;48.202;16.260;2024-03-08T00:07:48;4.40;99.90
48206;DHT22;33995;48.202;16.260;2024-03-08T00:10:15;4.40;99.90
48206;DHT22;33995;48.202;16.260;2024-03-08T00:12:44;4.30;99.90
48206;DHT22;33995;48.202;16.260;2024-03-08T00:15:16;4.40;99.90
48206;DHT22;33995;48.202;16.260;2024-03-08T00:17:48;4.50;99.90
48206;DHT22;33995;48.202;16.260;2024-03-08T00:20:16;4.30;99.90
48206;DHT22;33995;48.202;16.260;2024-03-08T00:22:46;4.50;99.90
48206;DHT22;33995;48.202;16.260;2024-03-08T00:25:15;4.40;99.90
48206;DHT22;33995;48.202;16.260;2024-03-08T00:27:43;4.40;99.90
48206;DHT22;33995;48.202;16.260;2024-03-08T00:30:10;4.30;99.90
48206;DHT22;33995;48.202;16.260;2024-03-08T00:32:41;4.20;99.90
48206;DHT22;33995;48.202;16.260;2024-03-08T00:35:09;4.20;99.90
48206;DHT22;33995;48.202;16.260;2024-03-08T00:37:40;4.20;99.90
48206;DHT22;33995;48.202;16.260;2024-03-08T00:40:10;4.20;99.90
48206;DHT22;33995;48.202;16.260;2024-03-08T00:42:38;4.20;99.90
48206;DHT22;33995;48.202;16.260;2024-03-08T00:45:07;4.20;99.90
48206;DHT22;33995;48.202;16.260;2024-03-08T00:47:34;4.30;99.90
48206;DHT22;33995;48.202;16.260;2024-03-08T00:50:02;4.20;99.90
48206;DHT22;33995;48.202;16.260;2024-03-08T00:52:30;4.20;99.90
48206;DHT22;33995;48.202;16.260;2024-03-08T00:55:00;4.20;99.90
48206;DHT22;33995;48.202;16.260;2024-03-08T00:57:28;4.20;99.90
48206;DHT22;33995;48.202;16.260;2024-03-08T00:59:55;4.10;99.90
48206;DHT22;33995;48.202;16.260;2024-03-08T01:02:26;4.10;99.90
48206;DHT22;33995;48.202;16.260;2024-03-08T01:04:53;4.10;99.90
48206;DHT22;33995;48.202;16.260;2024-03-08T01:07:25;4.10;99.90
48206;DHT22;33995;48.202;16.260;2024-03-08T01:09:52;4.10;99.90
48206;DHT22;33995;48.202;16.260;2024-03-08T01:12:20;4.10;99.90
48206;DHT22;33995;48.202;16.260;2024-03-08T01:14:47;4.10;99.90
48206;DHT22;33995;48.202;16.260;2024-03-08T01:17:14;4.10;99.90
48206;DHT22;33995;48.202;16.260;2024-03-08T01:19:41;4.10;99.90
48206;DHT22;33995;48.202;16.260;2024-03-08T01:22:08;4.00;99.90
48206;DHT22;33995;48.202;16.260;2024-03-08T01:24:36;4.00;99.90
48206;DHT22;33995;48.202;16.260;2024-03-08T01:27:04;3.90;99.90
48206;DHT22;33995;48.202;16.260;2024-03-08T01:29:31;3.90;99.90
48206;DHT22;33995;48.202;16.260;2024-03-08T01:31:59;4.00;99.90
48206;DHT22;33995;48.202;16.260;2024-03-08T01:34:28;4.00;99.90
48206;DHT22;33995;48.202;16.260;2024-03-08T01:36:55;3.90;99.90
48206;DHT22;33995;48.202;16.260;2024-03-08T01:39:23;4.00;99.90
48206;DHT22;33995;48.202;16.260;2024-03-08T01:41:50;3.80;99.90
48206;DHT22;33995;48.202;16.260;2024-03-08T01:44:17;3.80;99.90
48206;DHT22;33995;48.202;16.260;2024-03-08T01:46:49;3.80;99.90
48206;DHT22;33995;48.202;16.260;2024-03-08T01:49:21;3.90;99.90
48206;DHT22;33995;48.202;16.260;2024-03-08T01:51:49;3.80;99.90
48206;DHT22;33995;48.202;16.260;2024-03-08T01:54:17;3.90;99.90
48206;DHT22;33995;48.202;16.260;2024-03-08T01:56:45;3.90;99.90
48206;DHT22;33995;48.202;16.260;2024-03-08T01:59:16;3.70;99.90
48206;DHT22;33995;48.202;16.260;2024-03-08T02:01:46;3.80;99.90
48206;DHT22;33995;48.202;16.260;2024-03-08T02:04:14;3.80;99.90
48206;DHT22;33995;48.202;16.260;2024-03-08T02:06:44;3.80;99.90
48206;DHT22;33995;48.202;16.260;2024-03-08T02:09:12;3.80;99.90
48206;DHT22;33995;48.202;16.260;2024-03-08T02:11:44;3.80;99.90
48206;DHT22;33995;48.202;16.260;2024-03-08T02:14:12;3.70;99.90
48206;DHT22;33995;48.202;16.260;2024-03-08T02:16:39;3.80;99.90
48206;DHT22;33995;48.202;16.260;2024-03-08T02:19:06;3.70;99.90
48206;DHT22;33995;48.202;16.260;2024-03-08T02:21:36;3.60;99.90
48206;DHT22;33995;48.202;16.260;2024-03-08T02:24:05;3.60;99.90
48206;DHT22;33995;48.202;16.260;2024-03-08T02:26:33;3.50;99.90
48206;DHT22;33995;48.202;16.260;2024-03-08T02:29:02;3.40;99.90
48206;DHT22;33995;48.202;16.260;2024-03-08T02:31:31;3.50;99.90
48206;DHT22;33995;48.202;16.260;2024-03-08T02:33:58;3.50;99.90
48206;DHT22;33995;48.202;16.260;2024-03-08T02:36:26;3.50;99.90
48206;DHT22;33995;48.202;16.260;2024-03-08T02:38:53;3.50;99.90
48206;DHT22;33995;48.202;16.260;2024-03-08T02:41:22;3.40;99.90
48206;DHT22;33995;48.202;16.260;2024-03-08T02:43:49;3.50;99.90
48206;DHT22;33995;48.202;16.260;2024-03-08T02:46:17;3.50;99.90
48206;DHT22;33995;48.202;16.260;2024-03-08T02:48:44;3.50;99.90
48206;DHT22;33995;48.202;16.260;2024-03-08T02:51:11;3.50;99.90
48206;DHT22;33995;48.202;16.260;2024-03-08T02:53:39;3.40;99.90
48206;DHT22;33995;48.202;16.260;2024-03-08T02:56:06;3.40;99.90
48206;DHT22;33995;48.202;16.260;2024-03-08T02:58:40;3.40;99.90
48206;DHT22;33995;48.202;16.260;2024-03-08T03:01:07;3.40;99.90
48206;DHT22;33995;48.202;16.260;2024-03-08T03:03:35;3.40;99.90
48206;DHT22;33995;48.202;16.260;2024-03-08T03:06:03;3.40;99.90
48206;DHT22;33995;48.202;16.260;2024-03-08T03:08:37;3.40;99.90
48206;DHT22;33995;48.202;16.260;2024-03-08T03:11:06;3.30;99.90
48206;DHT22;33995;48.202;16.260;2024-03-08T03:13:34;3.40;99.90
48206;DHT22;33995;48.202;16.260;2024-03-08T03:16:01;3.40;99.90
48206;DHT22;33995;48.202;16.260;2024-03-08T03:18:28;3.40;99.90
48206;DHT22;33995;48.202;16.260;2024-03-08T03:20:55;3.40;99.90
48206;DHT22;33995;48.202;16.260;2024-03-08T03:23:23;3.40;99.90
48206;DHT22;33995;48.202;16.260;2024-03-08T03:25:50;3.40;99.90
48206;DHT22;33995;48.202;16.260;2024-03-08T03:28:19;3.40;99.90
48206;DHT22;33995;48.202;16.260;2024-03-08T03:30:48;3.30;99.90
48206;DHT22;33995;48.202;16.260;2024-03-08T03:33:15;3.30;99.90
48206;DHT22;33995;48.202;16.260;2024-03-08T03:35:46;3.30;99.90
48206;DHT22;33995;48.202;16.260;2024-03-08T03:38:16;3.30;99.90
48206;DHT22;33995;48.202;16.260;2024-03-08T03:40:43;3.40;99.90
48206;DHT22;33995;48.202;16.260;2024-03-08T03:43:12;3.40;99.90
48206;DHT22;33995;48.202;16.260;2024-03-08T03:45:39;3.40;99.90
48206;DHT22;33995;48.202;16.260;2024-03-08T03:48:08;3.50;99.90
48206;DHT22;33995;48.202;16.260;2024-03-08T03:50:39;3.40;99.90
48206;DHT22;33995;48.202;16.260;2024-03-08T03:53:07;3.50;99.90
48206;DHT22;33995;48.202;16.260;2024-03-08T03:55:35;3.40;99.90
48206;DHT22;33995;48.202;16.260;2024-03-08T03:58:03;3.40;99.90
48206;DHT22;33995;48.202;16.260;2024-03-08T04:00:30;3.50;99.90
48206;DHT22;33995;48.202;16.260;2024-03-08T04:02:58;3.50;99.90
48206;DHT22;33995;48.202;16.260;2024-03-08T04:05:31;3.30;99.90
48206;DHT22;33995;48.202;16.260;2024-03-08T04:08:00;3.40;99.90
48206;DHT22;33995;48.202;16.260;2024-03-08T04:10:27;3.40;99.90
48206;DHT22;33995;48.202;16.260;2024-03-08T04:12:54;3.40;99.90
48206;DHT22;33995;48.202;16.260;2024-03-08T04:15:21;3.50;99.90
48206;DHT22;33995;48.202;16.260;2024-03-08T04:17:51;3.50;99.90
48206;DHT22;33995;48.202;16.260;2024-03-08T04:20:20;3.50;99.90
48206;DHT22;33995;48.202;16.260;2024-03-08T04:22:48;3.50;99.90
48206;DHT22;33995;48.202;16.260;2024-03-08T04:25:16;3.50;99.90
48206;DHT22;33995;48.202;16.260;2024-03-08T04:27:44;3.60;99.90
48206;DHT22;33995;48.202;16.260;2024-03-08T04:30:19;3.50;99.90
48206;DHT22;33995;48.202;16.260;2024-03-08T04:32:48;3.50;99.90
48206;DHT22;33995;48.202;16.260;2024-03-08T04:35:16;3.40;99.90
48206;DHT22;33995;48.202;16.260;2024-03-08T04:37:43;3.40;99.90
48206;DHT22;33995;48.202;16.260;2024-03-08T04:40:17;3.50;99.90
48206;DHT22;33995;48.202;16.260;2024-03-08T04:42:48;3.50;99.90
48206;DHT22;33995;48.202;16.260;2024-03-08T04:45:18;3.60;99.90
48206;DHT22;33995;48.202;16.260;2024-03-08T04:47:45;3.60;99.90
48206;DHT22;33995;48.202;16.260;2024-03-08T04:50:12;3.60;99.90
48206;DHT22;33995;48.202;16.260;2024-03-08T04:52:39;3.60;99.90
48206;DHT22;33995;48.202;16.260;2024-03-08T04:55:06;3.50;99.90
48206;DHT22;33995;48.202;16.260;2024-03-08T04:57:33;3.60;99.90
48206;DHT22;33995;48.202;16.260;2024-03-08T05:00:02;3.50;99.90
48206;DHT22;33995;48.202;16.260;2024-03-08T05:02:29;3.50;99.90
48206;DHT22;33995;48.202;16.260;2024-03-08T05:04:56;3.50;99.90
48206;DHT22;33995;48.202;16.260;2024-03-08T05:07:23;3.40;99.90
48206;DHT22;33995;48.202;16.260;2024-03-08T05:09:50;3.50;99.90
48206;DHT22;33995;48.202;16.260;2024-03-08T05:12:19;3.60;99.90
48206;DHT22;33995;48.202;16.260;2024-03-08T05:14:46;3.50;99.90
48206;DHT22;33995;48.202;16.260;2024-03-08T05:17:17;3.60;99.90
48206;DHT22;33995;48.202;16.260;2024-03-08T05:19:44;3.40;99.90
48206;DHT22;33995;48.202;16.260;2024-03-08T05:22:12;3.40;99.90
48206;DHT22;33995;48.202;16.260;2024-03-08T05:24:40;3.40;99.90
48206;DHT22;33995;48.202;16.260;2024-03-08T05:27:07;3.40;99.90
48206;DHT22;33995;48.202;16.260;2024-03-08T05:29:34;3.50;99.90
48206;DHT22;33995;48.202;16.260;2024-03-08T05:32:01;3.40;99.90
48206;DHT22;33995;48.202;16.260;2024-03-08T05:34:29;3.50;99.90
48206;DHT22;33995;48.202;16.260;2024-03-08T05:36:56;3.50;99.90
48206;DHT22;33995;48.202;16.260;2024-03-08T05:39:25;3.40;99.90
48206;DHT22;33995;48.202;16.260;2024-03-08T05:41:52;3.50;99.90
48206;DHT22;33995;48.202;16.260;2024-03-08T05:44:20;3.60;99.90
48206;DHT22;33995;48.202;16.260;2024-03-08T05:46:46;3.50;99.90
48206;DHT22;33995;48.202;16.260;2024-03-08T05:49:14;3.40;99.90
48206;DHT22;33995;48.202;16.260;2024-03-08T05:51:41;3.50;99.90
48206;DHT22;33995;48.202;16.260;2024-03-08T05:54:10;3.60;99.90
48206;DHT22;33995;48.202;16.260;2024-03-08T05:56:43;3.70;99.90
48206;DHT22;33995;48.202;16.260;2024-03-08T05:59:11;3.60;99.90
48206;DHT22;33995;48.202;16.260;2024-03-08T06:01:38;3.60;99.90
48206;DHT22;33995;48.202;16.260;2024-03-08T06:04:09;3.60;99.90
48206;DHT22;33995;48.202;16.260;2024-03-08T06:06:39;3.70;99.90
48206;DHT22;33995;48.202;16.260;2024-03-08T06:09:07;3.70;99.90
48206;DHT22;33995;48.202;16.260;2024-03-08T06:11:37;3.60;99.90
48206;DHT22;33995;48.202;16.260;2024-03-08T06:14:05;3.60;99.90
48206;DHT22;33995;48.202;16.260;2024-03-08T06:16:33;3.70;99.90
48206;DHT22;33995;48.202;16.260;2024-03-08T06:19:03;3.70;99.90
48206;DHT22;33995;48.202;16.260;2024-03-08T06:21:30;3.80;99.90
48206;DHT22;33995;48.202;16.260;2024-03-08T06:23:58;3.80;99.90
48206;DHT22;33995;48.202;16.260;2024-03-08T06:26:28;3.80;99.90
48206;DHT22;33995;48.202;16.260;2024-03-08T06:28:57;3.80;99.90
48206;DHT22;33995;48.202;16.260;2024-03-08T06:31:25;3.90;99.90
48206;DHT22;33995;48.202;16.260;2024-03-08T06:33:52;3.90;99.90
48206;DHT22;33995;48.202;16.260;2024-03-08T06:36:22;3.90;99.90
48206;DHT22;33995;48.202;16.260;2024-03-08T06:38:52;3.90;99.90
48206;DHT22;33995;48.202;16.260;2024-03-08T06:41:23;3.80;99.90
48206;DHT22;33995;48.202;16.260;2024-03-08T06:43:53;3.90;99.90
48206;DHT22;33995;48.202;16.260;2024-03-08T06:46:27;3.90;99.90
48206;DHT22;33995;48.202;16.260;2024-03-08T06:48:58;4.00;99.90
48206;DHT22;33995;48.202;16.260;2024-03-08T06:51:25;4.00;99.90
48206;DHT22;33995;48.202;16.260;2024-03-08T06:53:52;4.30;99.90
48206;DHT22;33995;48.202;16.260;2024-03-08T06:56:19;4.10;99.90
48206;DHT22;33995;48.202;16.260;2024-03-08T06:58:47;4.20;99.90
48206;DHT22;33995;48.202;16.260;2024-03-08T07:01:19;4.10;99.90
48206;DHT22;33995;48.202;16.260;2024-03-08T07:03:48;4.10;99.90
48206;DHT22;33995;48.202;16.260;2024-03-08T07:06:15;4.10;99.90
48206;DHT22;33995;48.202;16.260;2024-03-08T07:08:44;4.10;99.90
48206;DHT22;33995;48.202;16.260;2024-03-08T07:11:14;4.20;99.90
48206;DHT22;33995;48.202;16.260;2024-03-08T07:13:46;4.20;99.90
48206;DHT22;33995;48.202;16.260;2024-03-08T07:16:13;4.30;99.90
48206;DHT22;33995;48.202;16.260;2024-03-08T07:18:41;4.30;99.90
48206;DHT22;33995;48.202;16.260;2024-03-08T07:21:10;4.30;99.90
48206;DHT22;33995;48.202;16.260;2024-03-08T07:23:38;4.30;99.90
48206;DHT22;33995;48.202;16.260;2024-03-08T07:26:24;4.20;99.90
48206;DHT22;33995;48.202;16.260;2024-03-08T07:28:51;4.20;99.90
48206;DHT22;33995;48.202;16.260;2024-03-08T07:31:19;4.20;99.90
48206;DHT22;33995;48.202;16.260;2024-03-08T07:34:05;4.30;99.90
48206;DHT22;33995;48.202;16.260;2024-03-08T07:36:37;4.10;99.90
48206;DHT22;33995;48.202;16.260;2024-03-08T07:39:04;4.10;99.90
48206;DHT22;33995;48.202;16.260;2024-03-08T07:41:38;4.10;99.90
48206;DHT22;33995;48.202;16.260;2024-03-08T07:44:07;4.40;99.90
48206;DHT22;33995;48.202;16.260;2024-03-08T07:46:37;4.20;99.90
48206;DHT22;33995;48.202;16.260;2024-03-08T07:49:05;4.10;99.90
48206;DHT22;33995;48.202;16.260;2024-03-08T07:51:32;4.30;99.90
48206;DHT22;33995;48.202;16.260;2024-03-08T07:54:01;4.20;99.90
48206;DHT22;33995;48.202;16.260;2024-03-08T07:56:31;4.30;99.90
48206;DHT22;33995;48.202;16.260;2024-03-08T07:59:02;4.20;99.90
48206;DHT22;33995;48.202;16.260;2024-03-08T08:01:32;4.30;99.90
48206;DHT22;33995;48.202;16.260;2024-03-08T08:04:00;4.30;99.90
48206;DHT22;33995;48.202;16.260;2024-03-08T08:06:32;4.30;99.90
48206;DHT22;33995;48.202;16.260;2024-03-08T08:09:00;4.30;99.90
48206;DHT22;33995;48.202;16.260;2024-03-08T08:11:27;4.30;99.90
48206;DHT22;33995;48.202;16.260;2024-03-08T08:13:57;4.30;99.90
48206;DHT22;33995;48.202;16.260;2024-03-08T08:16:28;4.30;99.90
48206;DHT22;33995;48.202;16.260;2024-03-08T08:18:55;4.20;99.90
48206;DHT22;33995;48.202;16.260;2024-03-08T08:21:22;4.30;99.90
48206;DHT22;33995;48.202;16.260;2024-03-08T08:23:51;4.20;99.90
48206;DHT22;33995;48.202;16.260;2024-03-08T08:26:19;4.20;99.90
48206;DHT22;33995;48.202;16.260;2024-03-08T08:28:45;4.20;99.90
48206;DHT22;33995;48.202;16.260;2024-03-08T08:31:13;4.30;99.90
48206;DHT22;33995;48.202;16.260;2024-03-08T08:34:29;4.30;99.90
48206;DHT22;33995;48.202;16.260;2024-03-08T08:36:57;4.40;99.90
48206;DHT22;33995;48.202;16.260;2024-03-08T08:39:24;4.30;99.90
48206;DHT22;33995;48.202;16.260;2024-03-08T08:41:52;4.20;99.90
48206;DHT22;33995;48.202;16.260;2024-03-08T08:44:21;4.10;99.90
48206;DHT22;33995;48.202;16.260;2024-03-08T08:46:49;4.30;99.90
48206;DHT22;33995;48.202;16.260;2024-03-08T08:49:21;4.30;99.90
48206;DHT22;33995;48.202;16.260;2024-03-08T08:51:49;4.20;99.90
48206;DHT22;33995;48.202;16.260;2024-03-08T08:54:19;4.20;99.90
48206;DHT22;33995;48.202;16.260;2024-03-08T08:56:47;4.20;99.90
48206;DHT22;33995;48.202;16.260;2024-03-08T08:59:14;4.10;99.90
48206;DHT22;33995;48.202;16.260;2024-03-08T09:01:46;4.10;99.90
48206;DHT22;33995;48.202;16.260;2024-03-08T09:04:20;4.20;99.90
48206;DHT22;33995;48.202;16.260;2024-03-08T09:06:50;4.30;99.90
48206;DHT22;33995;48.202;16.260;2024-03-08T09:09:17;4.40;99.90
48206;DHT22;33995;48.202;16.260;2024-03-08T09:11:44;4.30;99.90
48206;DHT22;33995;48.202;16.260;2024-03-08T09:14:13;4.30;99.90
48206;DHT22;33995;48.202;16.260;2024-03-08T09:16:41;4.30;99.90
48206;DHT22;33995;48.202;16.260;2024-03-08T09:19:08;4.30;99.90
48206;DHT22;33995;48.202;16.260;2024-03-08T09:21:37;4.30;99.90
48206;DHT22;33995;48.202;16.260;2024-03-08T09:24:06;4.30;99.90
48206;DHT22;33995;48.202;16.260;2024-03-08T09:26:36;4.30;99.90
48206;DHT22;33995;48.202;16.260;2024-03-08T09:29:04;4.30;99.90
48206;DHT22;33995;48.202;16.260;2024-03-08T09:31:34;4.30;99.90
48206;DHT22;33995;48.202;16.260;2024-03-08T09:34:04;4.30;99.90
48206;DHT22;33995;48.202;16.260;2024-03-08T09:36:34;4.30;99.90
48206;DHT22;33995;48.202;16.260;2024-03-08T09:39:01;4.10;99.90
48206;DHT22;33995;48.202;16.260;2024-03-08T09:41:28;4.20;99.90
48206;DHT22;33995;48.202;16.260;2024-03-08T09:43:57;4.20;99.90
48206;DHT22;33995;48.202;16.260;2024-03-08T09:46:26;4.30;99.90
48206;DHT22;33995;48.202;16.260;2024-03-08T09:48:54;4.20;99.90
48206;DHT22;33995;48.202;16.260;2024-03-08T09:51:27;4.20;99.90
48206;DHT22;33995;48.202;16.260;2024-03-08T09:53:55;4.20;99.90
48206;DHT22;33995;48.202;16.260;2024-03-08T09:56:25;4.20;99.90
48206;DHT22;33995;48.202;16.260;2024-03-08T09:58:54;4.40;99.90
48206;DHT22;33995;48.202;16.260;2024-03-08T10:01:44;4.30;99.90
48206;DHT22;33995;48.202;16.260;2024-03-08T10:04:14;4.30;99.90
48206;DHT22;33995;48.202;16.260;2024-03-08T10:06:41;4.30;99.90
48206;DHT22;33995;48.202;16.260;2024-03-08T10:09:08;4.40;99.90
48206;DHT22;33995;48.202;16.260;2024-03-08T10:11:37;4.50;99.90
48206;DHT22;33995;48.202;16.260;2024-03-08T10:14:11;4.60;99.90
48206;DHT22;33995;48.202;16.260;2024-03-08T10:16:41;4.70;99.90
48206;DHT22;33995;48.202;16.260;2024-03-08T10:19:08;4.70;99.90
48206;DHT22;33995;48.202;16.260;2024-03-08T10:21:50;4.70;99.90
48206;DHT22;33995;48.202;16.260;2024-03-08T10:24:20;4.50;99.90
48206;DHT22;33995;48.202;16.260;2024-03-08T10:26:58;4.70;99.90
48206;DHT22;33995;48.202;16.260;2024-03-08T10:29:25;4.90;99.90
48206;DHT22;33995;48.202;16.260;2024-03-08T10:31:52;5.10;99.90
48206;DHT22;33995;48.202;16.260;2024-03-08T10:34:20;5.20;99.90
48206;DHT22;33995;48.202;16.260;2024-03-08T10:36:51;5.20;99.90
48206;DHT22;33995;48.202;16.260;2024-03-08T10:39:24;5.50;99.90
48206;DHT22;33995;48.202;16.260;2024-03-08T10:41:59;5.50;99.90
48206;DHT22;33995;48.202;16.260;2024-03-08T10:47:25;5.90;99.90
48206;DHT22;33995;48.202;16.260;2024-03-08T10:50:14;5.90;99.90
48206;DHT22;33995;48.202;16.260;2024-03-08T10:52:44;5.80;99.90
48206;DHT22;33995;48.202;16.260;2024-03-08T10:55:12;5.70;99.90
48206;DHT22;33995;48.202;16.260;2024-03-08T10:57:40;5.80;99.90
48206;DHT22;33995;48.202;16.260;2024-03-08T11:00:09;5.90;99.90
48206;DHT22;33995;48.202;16.260;2024-03-08T11:02:38;6.00;99.90
48206;DHT22;33995;48.202;16.260;2024-03-08T11:05:10;5.90;99.90
48206;DHT22;33995;48.202;16.260;2024-03-08T11:07:42;6.00;99.90
48206;DHT22;33995;48.202;16.260;2024-03-08T11:10:19;6.20;99.90
48206;DHT22;33995;48.202;16.260;2024-03-08T11:12:50;6.30;99.90
48206;DHT22;33995;48.202;16.260;2024-03-08T11:15:17;6.40;99.90
48206;DHT22;33995;48.202;16.260;2024-03-08T11:20:14;6.80;99.90
48206;DHT22;33995;48.202;16.260;2024-03-08T11:25:37;6.70;99.90
48206;DHT22;33995;48.202;16.260;2024-03-08T11:28:17;6.60;99.90
48206;DHT22;33995;48.202;16.260;2024-03-08T11:33:37;7.70;99.90
48206;DHT22;33995;48.202;16.260;2024-03-08T11:36:25;7.80;99.90
48206;DHT22;33995;48.202;16.260;2024-03-08T11:38:53;7.60;99.90
48206;DHT22;33995;48.202;16.260;2024-03-08T11:41:23;7.40;99.90
48206;DHT22;33995;48.202;16.260;2024-03-08T11:44:05;7.20;99.90
48206;DHT22;33995;48.202;16.260;2024-03-08T11:46:36;7.00;99.90
48206;DHT22;33995;48.202;16.260;2024-03-08T11:49:03;7.10;99.90
48206;DHT22;33995;48.202;16.260;2024-03-08T11:51:30;7.20;99.90
48206;DHT22;33995;48.202;16.260;2024-03-08T11:53:59;7.10;99.90
48206;DHT22;33995;48.202;16.260;2024-03-08T11:56:26;7.10;99.90
48206;DHT22;33995;48.202;16.260;2024-03-08T11:58:55;7.20;99.90
48206;DHT22;33995;48.202;16.260;2024-03-08T12:01:26;7.30;99.90
48206;DHT22;33995;48.202;16.260;2024-03-08T12:03:54;7.40;99.90
48206;DHT22;33995;48.202;16.260;2024-03-08T12:06:22;7.40;99.90
48206;DHT22;33995;48.202;16.260;2024-03-08T12:08:49;7.60;99.90
48206;DHT22;33995;48.202;16.260;2024-03-08T12:11:18;7.80;99.90
48206;DHT22;33995;48.202;16.260;2024-03-08T12:13:54;8.00;99.90
48206;DHT22;33995;48.202;16.260;2024-03-08T12:16:24;8.10;99.90
48206;DHT22;33995;48.202;16.260;2024-03-08T12:18:52;8.10;99.90
48206;DHT22;33995;48.202;16.260;2024-03-08T12:21:20;8.60;99.90
48206;DHT22;33995;48.202;16.260;2024-03-08T12:24:09;8.70;99.90
48206;DHT22;33995;48.202;16.260;2024-03-08T12:26:40;8.40;99.90
48206;DHT22;33995;48.202;16.260;2024-03-08T12:29:38;8.10;99.90
48206;DHT22;33995;48.202;16.260;2024-03-08T12:32:06;7.90;99.90
48206;DHT22;33995;48.202;16.260;2024-03-08T12:34:34;7.80;99.90
48206;DHT22;33995;48.202;16.260;2024-03-08T12:37:01;7.80;99.90
48206;DHT22;33995;48.202;16.260;2024-03-08T12:39:30;7.80;99.90
48206;DHT22;33995;48.202;16.260;2024-03-08T12:41:57;7.70;99.90
48206;DHT22;33995;48.202;16.260;2024-03-08T12:44:24;7.60;99.90
48206;DHT22;33995;48.202;16.260;2024-03-08T12:46:53;7.50;99.90
48206;DHT22;33995;48.202;16.260;2024-03-08T12:49:21;7.50;99.90
48206;DHT22;33995;48.202;16.260;2024-03-08T12:51:53;7.50;99.90
48206;DHT22;33995;48.202;16.260;2024-03-08T12:54:20;7.50;99.90
48206;DHT22;33995;48.202;16.260;2024-03-08T12:56:51;7.40;99.90
48206;DHT22;33995;48.202;16.260;2024-03-08T12:59:24;7.60;99.90
48206;DHT22;33995;48.202;16.260;2024-03-08T13:01:51;7.40;99.90
48206;DHT22;33995;48.202;16.260;2024-03-08T13:04:21;7.50;99.90
48206;DHT22;33995;48.202;16.260;2024-03-08T13:06:49;7.50;99.90
48206;DHT22;33995;48.202;16.260;2024-03-08T13:09:24;7.40;99.90
48206;DHT22;33995;48.202;16.260;2024-03-08T13:11:54;7.50;99.90
48206;DHT22;33995;48.202;16.260;2024-03-08T13:14:25;7.50;99.90
48206;DHT22;33995;48.202;16.260;2024-03-08T13:16:52;7.60;99.90
48206;DHT22;33995;48.202;16.260;2024-03-08T13:19:22;7.50;99.90
48206;DHT22;33995;48.202;16.260;2024-03-08T13:21:49;7.50;99.90
48206;DHT22;33995;48.202;16.260;2024-03-08T13:24:16;7.40;99.90
48206;DHT22;33995;48.202;16.260;2024-03-08T13:26:46;7.50;99.90
48206;DHT22;33995;48.202;16.260;2024-03-08T13:29:14;7.40;99.90
48206;DHT22;33995;48.202;16.260;2024-03-08T13:31:42;7.50;99.90
48206;DHT22;33995;48.202;16.260;2024-03-08T13:34:12;7.60;99.90
48206;DHT22;33995;48.202;16.260;2024-03-08T13:36:40;7.70;99.90
48206;DHT22;33995;48.202;16.260;2024-03-08T13:39:11;7.90;99.90
48206;DHT22;33995;48.202;16.260;2024-03-08T13:41:42;7.90;99.90
48206;DHT22;33995;48.202;16.260;2024-03-08T13:44:10;7.80;99.90
48206;DHT22;33995;48.202;16.260;2024-03-08T13:46:38;7.70;99.90
48206;DHT22;33995;48.202;16.260;2024-03-08T13:49:06;7.70;99.90
48206;DHT22;33995;48.202;16.260;2024-03-08T13:51:35;7.80;99.90
48206;DHT22;33995;48.202;16.260;2024-03-08T13:54:02;7.70;99.90
48206;DHT22;33995;48.202;16.260;2024-03-08T13:56:33;7.80;99.90
48206;DHT22;33995;48.202;16.260;2024-03-08T13:59:02;7.90;99.90
48206;DHT22;33995;48.202;16.260;2024-03-08T14:01:31;8.00;99.90
48206;DHT22;33995;48.202;16.260;2024-03-08T14:04:01;8.10;99.90
48206;DHT22;33995;48.202;16.260;2024-03-08T14:06:33;8.00;99.90
48206;DHT22;33995;48.202;16.260;2024-03-08T14:09:05;7.90;99.90
48206;DHT22;33995;48.202;16.260;2024-03-08T14:11:34;8.00;99.90
48206;DHT22;33995;48.202;16.260;2024-03-08T14:14:01;8.00;99.90
48206;DHT22;33995;48.202;16.260;2024-03-08T14:16:28;7.90;99.90
48206;DHT22;33995;48.202;16.260;2024-03-08T14:18:55;8.00;99.90
48206;DHT22;33995;48.202;16.260;2024-03-08T14:21:22;7.90;99.90
48206;DHT22;33995;48.202;16.260;2024-03-08T14:23:49;7.90;99.90
48206;DHT22;33995;48.202;16.260;2024-03-08T14:26:19;7.90;99.90
48206;DHT22;33995;48.202;16.260;2024-03-08T14:28:48;7.90;99.90
48206;DHT22;33995;48.202;16.260;2024-03-08T14:31:18;7.90;99.90
48206;DHT22;33995;48.202;16.260;2024-03-08T14:33:49;7.80;99.90
48206;DHT22;33995;48.202;16.260;2024-03-08T14:36:17;7.90;99.90
48206;DHT22;33995;48.202;16.260;2024-03-08T14:38:44;7.80;99.90
48206;DHT22;33995;48.202;16.260;2024-03-08T14:41:11;7.90;99.90
48206;DHT22;33995;48.202;16.260;2024-03-08T14:43:39;7.90;99.90
48206;DHT22;33995;48.202;16.260;2024-03-08T14:46:07;7.70;99.90
48206;DHT22;33995;48.202;16.260;2024-03-08T14:48:34;7.90;99.90
48206;DHT22;33995;48.202;16.260;2024-03-08T14:51:03;7.90;99.90
48206;DHT22;33995;48.202;16.260;2024-03-08T14:53:31;8.00;99.90
48206;DHT22;33995;48.202;16.260;2024-03-08T14:55:57;8.10;99.90
48206;DHT22;33995;48.202;16.260;2024-03-08T14:58:26;8.80;99.90
48206;DHT22;33995;48.202;16.260;2024-03-08T15:00:54;9.00;99.90
48206;DHT22;33995;48.202;16.260;2024-03-08T15:03:30;8.80;99.90
48206;DHT22;33995;48.202;16.260;2024-03-08T15:06:00;8.80;99.90
48206;DHT22;33995;48.202;16.260;2024-03-08T15:08:27;8.50;99.90
48206;DHT22;33995;48.202;16.260;2024-03-08T15:10:55;8.30;99.90
48206;DHT22;33995;48.202;16.260;2024-03-08T15:13:23;8.30;99.90
48206;DHT22;33995;48.202;16.260;2024-03-08T15:15:55;9.30;99.90
48206;DHT22;33995;48.202;16.260;2024-03-08T15:18:24;9.10;99.90
48206;DHT22;33995;48.202;16.260;2024-03-08T15:20:55;8.90;99.90
48206;DHT22;33995;48.202;16.260;2024-03-08T15:23:22;8.90;99.90
48206;DHT22;33995;48.202;16.260;2024-03-08T15:25:49;8.90;99.90
48206;DHT22;33995;48.202;16.260;2024-03-08T15:28:19;9.10;99.90
48206;DHT22;33995;48.202;16.260;2024-03-08T15:30:47;9.40;99.90
48206;DHT22;33995;48.202;16.260;2024-03-08T15:33:21;9.70;99.90
48206;DHT22;33995;48.202;16.260;2024-03-08T15:35:54;9.60;99.90
48206;DHT22;33995;48.202;16.260;2024-03-08T15:38:36;9.50;99.90
48206;DHT22;33995;48.202;16.260;2024-03-08T15:41:04;9.40;99.90
48206;DHT22;33995;48.202;16.260;2024-03-08T15:43:40;9.40;99.90
48206;DHT22;33995;48.202;16.260;2024-03-08T15:46:08;9.00;99.90
48206;DHT22;33995;48.202;16.260;2024-03-08T15:48:37;8.80;99.90
48206;DHT22;33995;48.202;16.260;2024-03-08T15:51:05;9.00;99.90
48206;DHT22;33995;48.202;16.260;2024-03-08T15:53:33;8.70;99.90